sensor_id;sensor_type;location;lat;lon;timestamp;pressure;altitude;pressure_sealevel;temperature;humidity
66627;BME280;53498;50.422;14.912;2023-02-03T00:01:19;99786.59;;;1.48;100.00
66627;BME280;53498;50.422;14.912;2023-02-03T00:03:44;99784.09;;;1.49;100.00
66627;BME280;53498;50.422;14.912;2023-02-03T00:06:10;99775.66;;;1.52;100.00
66627;BME280;53498;50.422;14.912;2023-02-03T00:08:37;99777.50;;;1.54;100.00
66627;BME280;53498;50.422;14.912;2023-02-03T00:11:03;99772.53;;;1.57;100.00
66627;BME280;53498;50.422;14.912;2023-02-03T00:13:29;99773.44;;;1.59;100.00
66627;BME280;53498;50.422;14.912;2023-02-03T00:15:55;99775.66;;;1.52;100.00
66627;BME280;53498;50.422;14.912;2023-02-03T00:18:20;99767.88;;;1.50;100.00
66627;BME280;53498;50.422;14.912;2023-02-03T00:20:46;99766.13;;;1.49;100.00
66627;BME280;53498;50.422;14.912;2023-02-03T00:23:11;99779.09;;;1.52;100.00
66627;BME280;53498;50.422;14.912;2023-02-03T00:25:38;99778.09;;;1.49;100.00
66627;BME280;53498;50.422;14.912;2023-02-03T00:28:04;99785.97;;;1.53;100.00
66627;BME280;53498;50.422;14.912;2023-02-03T00:30:32;99779.09;;;1.52;100.00
66627;BME280;53498;50.422;14.912;2023-02-03T00:32:58;99780.94;;;1.55;100.00
66627;BME280;53498;50.422;14.912;2023-02-03T00:35:23;99773.41;;;1.58;100.00
66627;BME280;53498;50.422;14.912;2023-02-03T00:37:56;99771.78;;;1.60;100.00
66627;BME280;53498;50.422;14.912;2023-02-03T00:40:24;99769.13;;;1.58;100.00
66627;BME280;53498;50.422;14.912;2023-02-03T00:42:50;99763.88;;;1.55;100.00
66627;BME280;53498;50.422;14.912;2023-02-03T00:45:16;99767.25;;;1.54;100.00
66627;BME280;53498;50.422;14.912;2023-02-03T00:47:41;99765.41;;;1.52;100.00
66627;BME280;53498;50.422;14.912;2023-02-03T00:50:08;99764.84;;;1.57;100.00
66627;BME280;53498;50.422;14.912;2023-02-03T00:52:34;99761.97;;;1.51;100.00
66627;BME280;53498;50.422;14.912;2023-02-03T00:55:01;99771.28;;;1.49;100.00
66627;BME280;53498;50.422;14.912;2023-02-03T00:57:29;99774.94;;;1.54;100.00
66627;BME280;53498;50.422;14.912;2023-02-03T00:59:54;99761.25;;;1.54;100.00
66627;BME280;53498;50.422;14.912;2023-02-03T01:02:20;99760.34;;;1.53;100.00
66627;BME280;53498;50.422;14.912;2023-02-03T01:04:46;99757.06;;;1.56;100.00
66627;BME280;53498;50.422;14.912;2023-02-03T01:07:12;99752.78;;;1.56;100.00
66627;BME280;53498;50.422;14.912;2023-02-03T01:09:41;99751.13;;;1.57;100.00
66627;BME280;53498;50.422;14.912;2023-02-03T01:12:06;99755.22;;;1.53;100.00
66627;BME280;53498;50.422;14.912;2023-02-03T01:14:32;99752.66;;;1.53;100.00
66627;BME280;53498;50.422;14.912;2023-02-03T01:16:59;99741.31;;;1.48;100.00
66627;BME280;53498;50.422;14.912;2023-02-03T01:19:25;99738.66;;;1.47;100.00
66627;BME280;53498;50.422;14.912;2023-02-03T01:21:50;99744.09;;;1.53;100.00
66627;BME280;53498;50.422;14.912;2023-02-03T01:24:16;99737.63;;;1.61;100.00
66627;BME280;53498;50.422;14.912;2023-02-03T01:26:42;99730.69;;;1.58;100.00
66627;BME280;53498;50.422;14.912;2023-02-03T01:29:08;99728.25;;;1.61;100.00
66627;BME280;53498;50.422;14.912;2023-02-03T01:31:36;99722.41;;;1.64;100.00
66627;BME280;53498;50.422;14.912;2023-02-03T01:34:05;99725.06;;;1.48;100.00
66627;BME280;53498;50.422;14.912;2023-02-03T01:36:32;99712.31;;;1.49;100.00
66627;BME280;53498;50.422;14.912;2023-02-03T01:38:59;99703.59;;;1.46;100.00
66627;BME280;53498;50.422;14.912;2023-02-03T01:41:36;99697.44;;;1.42;100.00
66627;BME280;53498;50.422;14.912;2023-02-03T01:44:37;99685.38;;;1.39;100.00
66627;BME280;53498;50.422;14.912;2023-02-03T01:47:05;99679.22;;;1.36;100.00
66627;BME280;53498;50.422;14.912;2023-02-03T01:49:35;99674.97;;;1.36;100.00
66627;BME280;53498;50.422;14.912;2023-02-03T01:52:02;99683.75;;;1.42;100.00
66627;BME280;53498;50.422;14.912;2023-02-03T01:54:30;99677.88;;;1.44;100.00
66627;BME280;53498;50.422;14.912;2023-02-03T01:57:02;99672.06;;;1.29;100.00
66627;BME280;53498;50.422;14.912;2023-02-03T01:59:30;99657.63;;;1.31;100.00
66627;BME280;53498;50.422;14.912;2023-02-03T02:02:00;99658.28;;;1.27;100.00
66627;BME280;53498;50.422;14.912;2023-02-03T02:04:34;99648.09;;;1.28;100.00
66627;BME280;53498;50.422;14.912;2023-02-03T02:07:00;99648.84;;;1.26;100.00
66627;BME280;53498;50.422;14.912;2023-02-03T02:09:26;99633.00;;;1.34;100.00
66627;BME280;53498;50.422;14.912;2023-02-03T02:11:52;99629.28;;;1.28;100.00
66627;BME280;53498;50.422;14.912;2023-02-03T02:14:17;99627.72;;;1.31;100.00
66627;BME280;53498;50.422;14.912;2023-02-03T02:16:49;99620.03;;;1.31;100.00
66627;BME280;53498;50.422;14.912;2023-02-03T02:19:51;99601.22;;;1.11;100.00
66627;BME280;53498;50.422;14.912;2023-02-03T02:22:29;99606.31;;;1.11;100.00
66627;BME280;53498;50.422;14.912;2023-02-03T02:38:20;99608.06;;;1.12;100.00
66627;BME280;53498;50.422;14.912;2023-02-03T02:46:13;99599.19;;;1.04;100.00
66627;BME280;53498;50.422;14.912;2023-02-03T02:49:00;99597.91;;;1.14;100.00
66627;BME280;53498;50.422;14.912;2023-02-03T02:51:32;99595.34;;;1.14;100.00
66627;BME280;53498;50.422;14.912;2023-02-03T02:54:01;99584.81;;;1.08;100.00
66627;BME280;53498;50.422;14.912;2023-02-03T02:56:29;99584.53;;;1.02;100.00
66627;BME280;53498;50.422;14.912;2023-02-03T02:58:59;99584.81;;;1.08;100.00
66627;BME280;53498;50.422;14.912;2023-02-03T03:01:26;99578.59;;;1.03;100.00
66627;BME280;53498;50.422;14.912;2023-02-03T03:03:52;99587.81;;;0.99;100.00
66627;BME280;53498;50.422;14.912;2023-02-03T03:08:54;99581.34;;;0.88;100.00
66627;BME280;53498;50.422;14.912;2023-02-03T03:11:24;99568.59;;;0.89;100.00
66627;BME280;53498;50.422;14.912;2023-02-03T03:13:52;99563.47;;;0.89;100.00
66627;BME280;53498;50.422;14.912;2023-02-03T03:16:22;99556.25;;;0.81;100.00
66627;BME280;53498;50.422;14.912;2023-02-03T03:18:53;99550.63;;;0.88;100.00
66627;BME280;53498;50.422;14.912;2023-02-03T03:21:32;99548.06;;;0.88;100.00
66627;BME280;53498;50.422;14.912;2023-02-03T03:24:03;99554.34;;;0.95;100.00
66627;BME280;53498;50.422;14.912;2023-02-03T03:26:44;99561.16;;;0.94;100.00
66627;BME280;53498;50.422;14.912;2023-02-03T03:29:25;99557.19;;;0.83;100.00
66627;BME280;53498;50.422;14.912;2023-02-03T03:31:55;99541.56;;;0.96;100.00
66627;BME280;53498;50.422;14.912;2023-02-03T03:34:20;99536.84;;;0.86;100.00
66627;BME280;53498;50.422;14.912;2023-02-03T03:39:25;99526.31;;;0.80;100.00
66627;BME280;53498;50.422;14.912;2023-02-03T03:44:28;99527.50;;;0.68;100.00
66627;BME280;53498;50.422;14.912;2023-02-03T03:47:03;99534.75;;;0.77;100.00
66627;BME280;53498;50.422;14.912;2023-02-03T03:49:32;99533.78;;;0.75;100.00
66627;BME280;53498;50.422;14.912;2023-02-03T03:52:03;99531.97;;;0.73;100.00
66627;BME280;53498;50.422;14.912;2023-02-03T03:54:31;99523.06;;;0.64;100.00
66627;BME280;53498;50.422;14.912;2023-02-03T03:57:08;99525.47;;;0.61;100.00
66627;BME280;53498;50.422;14.912;2023-02-03T03:59:40;99518.56;;;0.78;100.00
66627;BME280;53498;50.422;14.912;2023-02-03T04:02:09;99520.34;;;0.61;100.00
66627;BME280;53498;50.422;14.912;2023-02-03T04:04:41;99520.44;;;0.63;100.00
66627;BME280;53498;50.422;14.912;2023-02-03T04:07:08;99530.72;;;0.64;100.00
66627;BME280;53498;50.422;14.912;2023-02-03T04:09:33;99523.06;;;0.64;100.00
66627;BME280;53498;50.422;14.912;2023-02-03T04:12:02;99522.09;;;0.62;100.00
66627;BME280;53498;50.422;14.912;2023-02-03T04:14:35;99521.50;;;0.50;100.00
66627;BME280;53498;50.422;14.912;2023-02-03T04:17:03;99520.16;;;0.57;100.00
66627;BME280;53498;50.422;14.912;2023-02-03T04:19:29;99505.13;;;0.64;100.00
66627;BME280;53498;50.422;14.912;2023-02-03T04:21:55;99499.28;;;0.49;100.00
66627;BME280;53498;50.422;14.912;2023-02-03T04:24:21;99494.31;;;0.52;100.00
66627;BME280;53498;50.422;14.912;2023-02-03T04:26:46;99483.94;;;0.49;100.00
66627;BME280;53498;50.422;14.912;2023-02-03T04:29:12;99476.06;;;0.44;100.00
66627;BME280;53498;50.422;14.912;2023-02-03T04:31:37;99470.72;;;0.40;100.00
66627;BME280;53498;50.422;14.912;2023-02-03T04:34:03;99468.28;;;0.43;100.00
66627;BME280;53498;50.422;14.912;2023-02-03T04:36:30;99456.91;;;0.36;100.00
66627;BME280;53498;50.422;14.912;2023-02-03T04:38:56;99448.69;;;0.43;100.00
66627;BME280;53498;50.422;14.912;2023-02-03T04:41:21;99445.00;;;0.56;100.00
66627;BME280;53498;50.422;14.912;2023-02-03T04:43:47;99443.00;;;0.49;100.00
66627;BME280;53498;50.422;14.912;2023-02-03T04:46:12;99429.91;;;0.43;100.00
66627;BME280;53498;50.422;14.912;2023-02-03T04:48:38;99431.72;;;0.45;100.00
66627;BME280;53498;50.422;14.912;2023-02-03T04:51:05;99427.50;;;0.46;100.00
66627;BME280;53498;50.422;14.912;2023-02-03T04:53:32;99408.91;;;0.50;100.00
66627;BME280;53498;50.422;14.912;2023-02-03T04:55:58;99412.81;;;0.42;100.00
66627;BME280;53498;50.422;14.912;2023-02-03T04:58:24;99406.59;;;0.37;100.00
66627;BME280;53498;50.422;14.912;2023-02-03T05:00:52;99398.03;;;0.36;100.00
66627;BME280;53498;50.422;14.912;2023-02-03T05:03:17;99395.84;;;0.44;100.00
66627;BME280;53498;50.422;14.912;2023-02-03T05:05:43;99388.69;;;0.37;100.00
66627;BME280;53498;50.422;14.912;2023-02-03T05:08:09;99391.09;;;0.34;100.00
66627;BME280;53498;50.422;14.912;2023-02-03T05:10:40;99382.00;;;0.40;100.00
66627;BME280;53498;50.422;14.912;2023-02-03T05:13:06;99383.06;;;0.44;100.00
66627;BME280;53498;50.422;14.912;2023-02-03T05:15:31;99372.81;;;0.44;100.00
66627;BME280;53498;50.422;14.912;2023-02-03T05:17:57;99370.03;;;0.39;100.00
66627;BME280;53498;50.422;14.912;2023-02-03T05:20:22;99376.63;;;0.34;100.00
66627;BME280;53498;50.422;14.912;2023-02-03T05:22:48;99364.47;;;0.48;100.00
66627;BME280;53498;50.422;14.912;2023-02-03T05:25:14;99356.56;;;0.43;100.00
66627;BME280;53498;50.422;14.912;2023-02-03T05:27:39;99366.34;;;0.52;100.00
66627;BME280;53498;50.422;14.912;2023-02-03T05:30:07;99365.34;;;0.49;100.00
66627;BME280;53498;50.422;14.912;2023-02-03T05:32:33;99358.06;;;0.58;100.00
66627;BME280;53498;50.422;14.912;2023-02-03T05:34:58;99347.38;;;0.47;100.00
66627;BME280;53498;50.422;14.912;2023-02-03T05:37:24;99352.00;;;0.56;100.00
66627;BME280;53498;50.422;14.912;2023-02-03T05:39:50;99335.91;;;0.58;100.00
66627;BME280;53498;50.422;14.912;2023-02-03T05:42:15;99329.97;;;0.59;100.00
66627;BME280;53498;50.422;14.912;2023-02-03T05:44:41;99335.03;;;0.58;100.00
66627;BME280;53498;50.422;14.912;2023-02-03T05:47:06;99339.00;;;0.51;100.00
66627;BME280;53498;50.422;14.912;2023-02-03T05:49:32;99337.78;;;0.62;100.00
66627;BME280;53498;50.422;14.912;2023-02-03T05:51:57;99324.59;;;0.73;100.00
66627;BME280;53498;50.422;14.912;2023-02-03T05:54:23;99320.88;;;0.66;100.00
66627;BME280;53498;50.422;14.912;2023-02-03T05:56:49;99314.22;;;0.69;100.00
66627;BME280;53498;50.422;14.912;2023-02-03T05:59:15;99316.09;;;0.74;100.00
66627;BME280;53498;50.422;14.912;2023-02-03T06:01:43;99300.91;;;0.78;100.00
66627;BME280;53498;50.422;14.912;2023-02-03T06:04:09;99293.28;;;0.80;100.00
66627;BME280;53498;50.422;14.912;2023-02-03T06:06:35;99277.72;;;0.75;100.00
66627;BME280;53498;50.422;14.912;2023-02-03T06:09:03;99282.19;;;0.79;100.00
66627;BME280;53498;50.422;14.912;2023-02-03T06:11:30;99282.94;;;0.77;100.00
66627;BME280;53498;50.422;14.912;2023-02-03T06:13:57;99282.38;;;0.84;100.00
66627;BME280;53498;50.422;14.912;2023-02-03T06:16:26;99281.63;;;0.86;100.00
66627;BME280;53498;50.422;14.912;2023-02-03T06:18:53;99277.25;;;0.84;100.00
66627;BME280;53498;50.422;14.912;2023-02-03T06:21:22;99293.56;;;0.86;100.00
66627;BME280;53498;50.422;14.912;2023-02-03T06:23:48;99289.38;;;0.88;100.00
66627;BME280;53498;50.422;14.912;2023-02-03T06:26:13;99299.63;;;0.88;100.00
66627;BME280;53498;50.422;14.912;2023-02-03T06:28:39;99296.38;;;0.92;100.00
66627;BME280;53498;50.422;14.912;2023-02-03T06:31:05;99288.81;;;0.95;100.00
66627;BME280;53498;50.422;14.912;2023-02-03T06:33:32;99290.38;;;0.91;100.00
66627;BME280;53498;50.422;14.912;2023-02-03T06:35:58;99285.44;;;0.96;100.00
66627;BME280;53498;50.422;14.912;2023-02-03T06:38:24;99296.63;;;0.98;100.00
66627;BME280;53498;50.422;14.912;2023-02-03T06:40:49;99289.81;;;0.99;100.00
66627;BME280;53498;50.422;14.912;2023-02-03T06:43:15;99285.56;;;0.99;100.00
66627;BME280;53498;50.422;14.912;2023-02-03T06:45:44;99284.06;;;1.04;100.00
66627;BME280;53498;50.422;14.912;2023-02-03T06:48:11;99278.81;;;1.01;100.00
66627;BME280;53498;50.422;14.912;2023-02-03T06:50:37;99284.00;;;1.03;100.00
66627;BME280;53498;50.422;14.912;2023-02-03T06:53:02;99276.41;;;1.04;100.00
66627;BME280;53498;50.422;14.912;2023-02-03T06:55:28;99271.19;;;1.03;100.00
66627;BME280;53498;50.422;14.912;2023-02-03T06:57:54;99262.47;;;0.98;100.00
66627;BME280;53498;50.422;14.912;2023-02-03T07:00:20;99254.13;;;1.03;100.00
66627;BME280;53498;50.422;14.912;2023-02-03T07:02:57;99240.53;;;1.04;100.00
66627;BME280;53498;50.422;14.912;2023-02-03T07:05:24;99238.88;;;1.06;100.00
66627;BME280;53498;50.422;14.912;2023-02-03T07:07:51;99236.44;;;1.09;100.00
66627;BME280;53498;50.422;14.912;2023-02-03T07:10:17;99239.22;;;1.14;100.00
66627;BME280;53498;50.422;14.912;2023-02-03T07:12:42;99237.41;;;1.11;100.00
66627;BME280;53498;50.422;14.912;2023-02-03T07:15:09;99230.66;;;1.13;100.00
66627;BME280;53498;50.422;14.912;2023-02-03T07:17:35;99226.19;;;1.09;100.00
66627;BME280;53498;50.422;14.912;2023-02-03T07:20:01;99220.81;;;1.03;100.00
66627;BME280;53498;50.422;14.912;2023-02-03T07:22:26;99215.16;;;1.10;100.00
66627;BME280;53498;50.422;14.912;2023-02-03T07:24:52;99213.75;;;1.19;100.00
66627;BME280;53498;50.422;14.912;2023-02-03T07:27:18;99221.00;;;1.29;100.00
66627;BME280;53498;50.422;14.912;2023-02-03T07:29:44;99222.03;;;1.34;100.00
66627;BME280;53498;50.422;14.912;2023-02-03T07:32:10;99222.59;;;1.48;100.00
66627;BME280;53498;50.422;14.912;2023-02-03T07:34:36;99213.69;;;1.60;100.00
66627;BME280;53498;50.422;14.912;2023-02-03T07:37:01;99213.44;;;1.77;100.00
66627;BME280;53498;50.422;14.912;2023-02-03T07:39:27;99205.22;;;1.85;100.00
66627;BME280;53498;50.422;14.912;2023-02-03T07:41:52;99206.34;;;1.94;100.00
66627;BME280;53498;50.422;14.912;2023-02-03T07:44:18;99205.78;;;2.01;100.00
66627;BME280;53498;50.422;14.912;2023-02-03T07:46:43;99183.06;;;2.12;100.00
66627;BME280;53498;50.422;14.912;2023-02-03T07:49:10;99178.84;;;2.14;100.00
66627;BME280;53498;50.422;14.912;2023-02-03T07:51:36;99176.50;;;2.20;100.00
66627;BME280;53498;50.422;14.912;2023-02-03T07:54:02;99162.72;;;2.18;100.00
66627;BME280;53498;50.422;14.912;2023-02-03T07:56:28;99163.06;;;2.27;100.00
66627;BME280;53498;50.422;14.912;2023-02-03T07:58:55;99165.06;;;2.36;100.00
66627;BME280;53498;50.422;14.912;2023-02-03T08:01:20;99165.97;;;2.38;100.00
66627;BME280;53498;50.422;14.912;2023-02-03T08:03:46;99161.81;;;2.41;100.00
66627;BME280;53498;50.422;14.912;2023-02-03T08:06:12;99156.69;;;2.41;100.00
66627;BME280;53498;50.422;14.912;2023-02-03T08:08:37;99150.94;;;2.48;100.00
66627;BME280;53498;50.422;14.912;2023-02-03T08:11:03;99151.97;;;2.53;100.00
66627;BME280;53498;50.422;14.912;2023-02-03T08:13:29;99146.91;;;2.57;100.00
66627;BME280;53498;50.422;14.912;2023-02-03T08:15:54;99145.50;;;2.65;100.00
66627;BME280;53498;50.422;14.912;2023-02-03T08:18:20;99140.44;;;2.68;100.00
66627;BME280;53498;50.422;14.912;2023-02-03T08:20:49;99141.22;;;2.65;100.00
66627;BME280;53498;50.422;14.912;2023-02-03T08:23:15;99131.03;;;2.68;100.00
66627;BME280;53498;50.422;14.912;2023-02-03T08:25:41;99132.88;;;2.72;100.00
66627;BME280;53498;50.422;14.912;2023-02-03T08:28:06;99144.16;;;2.76;100.00
66627;BME280;53498;50.422;14.912;2023-02-03T08:30:32;99128.13;;;2.85;100.00
66627;BME280;53498;50.422;14.912;2023-02-03T08:32:58;99127.47;;;2.90;100.00
66627;BME280;53498;50.422;14.912;2023-02-03T08:35:23;99118.75;;;2.85;100.00
66627;BME280;53498;50.422;14.912;2023-02-03T08:37:49;99107.69;;;2.88;100.00
66627;BME280;53498;50.422;14.912;2023-02-03T08:40:15;99104.44;;;2.93;100.00
66627;BME280;53498;50.422;14.912;2023-02-03T08:42:41;99101.97;;;2.96;100.00
66627;BME280;53498;50.422;14.912;2023-02-03T08:45:07;99101.88;;;2.93;100.00
66627;BME280;53498;50.422;14.912;2023-02-03T08:47:33;99100.41;;;3.01;100.00
66627;BME280;53498;50.422;14.912;2023-02-03T08:50:01;99105.75;;;3.08;100.00
66627;BME280;53498;50.422;14.912;2023-02-03T08:52:28;99106.78;;;3.14;100.00
66627;BME280;53498;50.422;14.912;2023-02-03T08:54:53;99101.88;;;3.22;100.00
66627;BME280;53498;50.422;14.912;2023-02-03T08:57:19;99105.38;;;3.24;100.00
66627;BME280;53498;50.422;14.912;2023-02-03T08:59:44;99100.34;;;3.29;100.00
66627;BME280;53498;50.422;14.912;2023-02-03T09:02:14;99097.94;;;3.33;100.00
66627;BME280;53498;50.422;14.912;2023-02-03T09:04:40;99093.78;;;3.38;100.00
66627;BME280;53498;50.422;14.912;2023-02-03T09:07:06;99087.94;;;3.44;100.00
66627;BME280;53498;50.422;14.912;2023-02-03T09:09:32;99090.34;;;3.38;100.00
66627;BME280;53498;50.422;14.912;2023-02-03T09:11:57;99082.84;;;3.45;100.00
66627;BME280;53498;50.422;14.912;2023-02-03T09:14:32;99084.50;;;3.43;100.00
66627;BME280;53498;50.422;14.912;2023-02-03T09:17:02;99073.56;;;3.51;100.00
66627;BME280;53498;50.422;14.912;2023-02-03T09:19:29;99068.56;;;3.55;100.00
66627;BME280;53498;50.422;14.912;2023-02-03T09:21:55;99064.28;;;3.56;100.00
66627;BME280;53498;50.422;14.912;2023-02-03T09:24:24;99060.13;;;3.61;100.00
66627;BME280;53498;50.422;14.912;2023-02-03T09:26:50;99057.59;;;3.62;100.00
66627;BME280;53498;50.422;14.912;2023-02-03T09:29:15;99056.06;;;3.69;100.00
66627;BME280;53498;50.422;14.912;2023-02-03T09:31:41;99039.06;;;3.74;100.00
66627;BME280;53498;50.422;14.912;2023-02-03T09:34:08;99025.59;;;3.84;100.00
66627;BME280;53498;50.422;14.912;2023-02-03T09:36:34;99024.75;;;3.85;100.00
66627;BME280;53498;50.422;14.912;2023-02-03T09:39:00;99019.84;;;3.94;100.00
66627;BME280;53498;50.422;14.912;2023-02-03T09:44:49;99006.94;;;3.93;100.00
66627;BME280;53498;50.422;14.912;2023-02-03T09:47:26;98999.47;;;4.04;100.00
66627;BME280;53498;50.422;14.912;2023-02-03T09:49:55;99001.25;;;4.05;100.00
66627;BME280;53498;50.422;14.912;2023-02-03T09:52:35;98996.91;;;4.04;100.00
66627;BME280;53498;50.422;14.912;2023-02-03T09:55:06;98998.75;;;4.08;100.00
66627;BME280;53498;50.422;14.912;2023-02-03T09:57:45;98985.88;;;4.08;100.00
66627;BME280;53498;50.422;14.912;2023-02-03T10:00:25;98975.81;;;4.17;100.00
66627;BME280;53498;50.422;14.912;2023-02-03T10:03:30;98968.94;;;4.17;100.00
66627;BME280;53498;50.422;14.912;2023-02-03T10:08:55;98962.97;;;4.18;100.00
66627;BME280;53498;50.422;14.912;2023-02-03T10:19:13;98917.81;;;4.33;100.00
66627;BME280;53498;50.422;14.912;2023-02-03T10:21:47;98923.13;;;4.40;100.00
66627;BME280;53498;50.422;14.912;2023-02-03T10:24:42;98924.03;;;4.43;100.00
66627;BME280;53498;50.422;14.912;2023-02-03T10:27:15;98914.69;;;4.48;100.00
66627;BME280;53498;50.422;14.912;2023-02-03T10:29:42;98920.94;;;4.59;100.00
66627;BME280;53498;50.422;14.912;2023-02-03T10:32:09;98912.38;;;4.60;100.00
66627;BME280;53498;50.422;14.912;2023-02-03T10:34:36;98903.75;;;4.58;100.00
66627;BME280;53498;50.422;14.912;2023-02-03T10:39:44;98878.13;;;4.64;100.00
66627;BME280;53498;50.422;14.912;2023-02-03T10:42:10;98874.78;;;4.70;100.00
66627;BME280;53498;50.422;14.912;2023-02-03T10:44:56;98874.72;;;4.67;100.00
66627;BME280;53498;50.422;14.912;2023-02-03T10:49:53;98859.31;;;4.68;100.00
66627;BME280;53498;50.422;14.912;2023-02-03T10:54:51;98836.13;;;4.68;100.00
66627;BME280;53498;50.422;14.912;2023-02-03T10:57:16;98834.34;;;4.66;100.00
66627;BME280;53498;50.422;14.912;2023-02-03T10:59:45;98831.81;;;4.69;100.00
66627;BME280;53498;50.422;14.912;2023-02-03T11:02:26;98819.00;;;4.70;100.00
66627;BME280;53498;50.422;14.912;2023-02-03T11:07:41;98806.19;;;4.75;100.00
66627;BME280;53498;50.422;14.912;2023-02-03T11:10:27;98798.44;;;4.75;100.00
66627;BME280;53498;50.422;14.912;2023-02-03T11:13:12;98780.47;;;4.79;100.00
66627;BME280;53498;50.422;14.912;2023-02-03T11:16:05;98783.97;;;4.81;100.00
66627;BME280;53498;50.422;14.912;2023-02-03T11:18:34;98769.47;;;4.86;100.00
66627;BME280;53498;50.422;14.912;2023-02-03T11:23:53;98751.44;;;4.86;100.00
66627;BME280;53498;50.422;14.912;2023-02-03T11:26:44;98756.69;;;4.93;100.00
66627;BME280;53498;50.422;14.912;2023-02-03T11:29:15;98749.84;;;4.95;100.00
66627;BME280;53498;50.422;14.912;2023-02-03T11:31:46;98744.63;;;4.92;100.00
66627;BME280;53498;50.422;14.912;2023-02-03T11:34:15;98749.94;;;5.01;100.00
66627;BME280;53498;50.422;14.912;2023-02-03T11:36:42;98737.03;;;4.99;100.00
66627;BME280;53498;50.422;14.912;2023-02-03T11:39:19;98731.94;;;5.02;100.00
66627;BME280;53498;50.422;14.912;2023-02-03T11:41:46;98726.75;;;5.01;100.00
66627;BME280;53498;50.422;14.912;2023-02-03T11:44:18;98720.81;;;5.06;100.00
66627;BME280;53498;50.422;14.912;2023-02-03T11:46:47;98714.84;;;5.09;100.00
66627;BME280;53498;50.422;14.912;2023-02-03T11:52:27;98706.25;;;5.10;100.00
66627;BME280;53498;50.422;14.912;2023-02-03T11:55:15;98702.88;;;5.13;100.00
66627;BME280;53498;50.422;14.912;2023-02-03T11:58:12;98706.44;;;5.21;100.00
66627;BME280;53498;50.422;14.912;2023-02-03T12:06:42;98687.66;;;5.29;100.00
66627;BME280;53498;50.422;14.912;2023-02-03T12:12:06;98661.91;;;5.32;100.00
66627;BME280;53498;50.422;14.912;2023-02-03T12:15:05;98667.19;;;5.40;100.00
66627;BME280;53498;50.422;14.912;2023-02-03T12:20:25;98646.59;;;5.45;100.00
66627;BME280;53498;50.422;14.912;2023-02-03T12:28:44;98643.13;;;5.40;100.00
66627;BME280;53498;50.422;14.912;2023-02-03T12:31:20;98623.38;;;5.45;100.00
66627;BME280;53498;50.422;14.912;2023-02-03T12:33:58;98610.53;;;5.46;100.00
66627;BME280;53498;50.422;14.912;2023-02-03T12:36:30;98600.25;;;5.51;100.00
66627;BME280;53498;50.422;14.912;2023-02-03T12:39:54;98565.88;;;5.52;100.00
66627;BME280;53498;50.422;14.912;2023-02-03T12:44:58;98533.25;;;5.57;100.00
66627;BME280;53498;50.422;14.912;2023-02-03T12:47:33;98512.63;;;5.59;100.00
66627;BME280;53498;50.422;14.912;2023-02-03T12:52:43;98517.81;;;5.59;100.00
66627;BME280;53498;50.422;14.912;2023-02-03T12:55:27;98520.41;;;5.63;100.00
66627;BME280;53498;50.422;14.912;2023-02-03T12:58:02;98537.69;;;5.67;100.00
66627;BME280;53498;50.422;14.912;2023-02-03T13:00:37;98536.75;;;5.64;100.00
66627;BME280;53498;50.422;14.912;2023-02-03T13:06:19;98559.03;;;5.57;100.00
66627;BME280;53498;50.422;14.912;2023-02-03T13:08:53;98578.00;;;5.61;100.00
66627;BME280;53498;50.422;14.912;2023-02-03T13:11:35;98575.41;;;5.59;100.00
66627;BME280;53498;50.422;14.912;2023-02-03T13:14:11;98582.31;;;5.60;100.00
66627;BME280;53498;50.422;14.912;2023-02-03T13:16:42;98582.28;;;5.57;100.00
66627;BME280;53498;50.422;14.912;2023-02-03T13:19:14;98591.66;;;5.50;100.00
66627;BME280;53498;50.422;14.912;2023-02-03T13:21:42;98584.84;;;5.57;100.00
66627;BME280;53498;50.422;14.912;2023-02-03T13:24:09;98554.72;;;5.54;100.00
66627;BME280;53498;50.422;14.912;2023-02-03T13:32:13;98578.88;;;5.60;100.00
66627;BME280;53498;50.422;14.912;2023-02-03T13:34:50;98561.72;;;5.65;100.00
66627;BME280;53498;50.422;14.912;2023-02-03T13:40:21;98554.72;;;5.53;100.00
66627;BME280;53498;50.422;14.912;2023-02-03T13:43:04;98553.78;;;5.48;100.00
66627;BME280;53498;50.422;14.912;2023-02-03T13:45:36;98537.44;;;5.47;100.00
66627;BME280;53498;50.422;14.912;2023-02-03T13:48:24;98526.25;;;5.48;100.00
66627;BME280;53498;50.422;14.912;2023-02-03T13:51:23;98526.38;;;5.56;100.00
66627;BME280;53498;50.422;14.912;2023-02-03T13:53:48;98505.63;;;5.48;100.00
66627;BME280;53498;50.422;14.912;2023-02-03T13:56:24;98519.44;;;5.52;100.00
66627;BME280;53498;50.422;14.912;2023-02-03T14:01:40;98499.88;;;5.72;100.00
66627;BME280;53498;50.422;14.912;2023-02-03T14:04:08;98512.72;;;5.65;100.00
66627;BME280;53498;50.422;14.912;2023-02-03T14:07:14;98529.84;;;5.58;100.00
66627;BME280;53498;50.422;14.912;2023-02-03T14:09:44;98528.97;;;5.59;100.00
66627;BME280;53498;50.422;14.912;2023-02-03T14:12:29;98533.13;;;5.46;100.00
66627;BME280;53498;50.422;14.912;2023-02-03T14:14:59;98552.91;;;5.46;100.00
66627;BME280;53498;50.422;14.912;2023-02-03T14:25:41;98645.81;;;5.49;100.00
66627;BME280;53498;50.422;14.912;2023-02-03T14:28:15;98660.41;;;5.45;100.00
66627;BME280;53498;50.422;14.912;2023-02-03T14:31:12;98668.09;;;5.42;100.00
66627;BME280;53498;50.422;14.912;2023-02-03T14:42:01;98684.28;;;4.79;100.00
66627;BME280;53498;50.422;14.912;2023-02-03T14:47:08;98685.94;;;4.75;100.00
66627;BME280;53498;50.422;14.912;2023-02-03T14:58:45;98695.41;;;4.76;100.00
66627;BME280;53498;50.422;14.912;2023-02-03T15:01:26;98693.72;;;4.77;100.00
66627;BME280;53498;50.422;14.912;2023-02-03T15:04:25;98697.09;;;4.74;100.00
66627;BME280;53498;50.422;14.912;2023-02-03T15:06:51;98702.22;;;4.73;100.00